Time;durP1;ratioP1;P1;durP2;ratioP2;P2;SDS_P1;SDS_P2;PMS_P1;PMS_P2;Temp;Humidity;BMP_temperature;BMP_pressure;BME280_temperature;BME280_humidity;BME280_pressure;Samples;Min_cycle;Max_cycle;Signal;HPM_P1;HPM_P2
2021/09/21 00:00:44;;;;;;;4.82;2.85;;;;;;;;;;5085841;28;20032;-77
2021/09/21 00:03:11;;;;;;;3.53;2.60;;;;;;;;;;5077348;28;20066;-77
2021/09/21 00:05:37;;;;;;;4.78;2.47;;;;;;;;;;5084307;28;20067;-77
2021/09/21 00:08:05;;;;;;;3.40;2.47;;;;;;;;;;5071871;28;20068;-76
2021/09/21 00:10:31;;;;;;;4.35;2.85;;;;;;;;;;5080252;28;20052;-77
2021/09/21 00:12:58;;;;;;;4.30;2.72;;;;;;;;;;5072777;28;20059;-77
2021/09/21 00:15:24;;;;;;;4.20;2.90;;;;;;;;;;5073153;28;20101;-76
2021/09/21 00:17:51;;;;;;;4.10;2.58;;;;;;;;;;5046205;28;20117;-76
2021/09/21 00:20:18;;;;;;;4.88;3.05;;;;;;;;;;5061069;28;20067;-76
2021/09/21 00:22:45;;;;;;;4.00;2.88;;;;;;;;;;5087441;28;20072;-76
2021/09/21 00:25:13;;;;;;;3.55;2.55;;;;;;;;;;5089495;28;20032;-76
2021/09/21 00:27:41;;;;;;;4.15;2.80;;;;;;;;;;5085985;28;20444;-77
2021/09/21 00:30:08;;;;;;;4.72;2.80;;;;;;;;;;5080252;28;20052;-77
2021/09/21 00:32:34;;;;;;;3.88;2.65;;;;;;;;;;5068769;28;20098;-75
2021/09/21 00:35:01;;;;;;;3.53;2.63;;;;;;;;;;5087725;28;20112;-77
2021/09/21 00:37:28;;;;;;;4.32;2.88;;;;;;;;;;5089306;28;20064;-77
2021/09/21 00:39:54;;;;;;;4.30;2.90;;;;;;;;;;5084720;28;20059;-78
2021/09/21 00:42:25;;;;;;;4.90;3.13;;;;;;;;;;5084911;28;20801;-76
2021/09/21 00:44:56;;;;;;;4.70;3.10;;;;;;;;;;5083606;28;20146;-76
2021/09/21 00:47:22;;;;;;;3.95;2.58;;;;;;;;;;5086514;28;20055;-76
2021/09/21 00:49:49;;;;;;;4.57;2.95;;;;;;;;;;5089126;28;20028;-76
2021/09/21 00:52:15;;;;;;;4.05;3.05;;;;;;;;;;5074728;28;20134;-76
2021/09/21 00:54:42;;;;;;;3.38;2.45;;;;;;;;;;5080118;28;20068;-76
2021/09/21 00:57:09;;;;;;;4.25;2.90;;;;;;;;;;5068996;28;20071;-76
2021/09/21 00:59:35;;;;;;;3.67;2.50;;;;;;;;;;5067045;28;20051;-75
2021/09/21 01:02:02;;;;;;;4.18;2.70;;;;;;;;;;5069588;28;20110;-76
2021/09/21 01:04:28;;;;;;;7.45;2.80;;;;;;;;;;5070936;28;20068;-76
2021/09/21 01:06:54;;;;;;;4.18;2.78;;;;;;;;;;5087064;28;20067;-76
2021/09/21 01:09:22;;;;;;;5.10;2.75;;;;;;;;;;5086293;28;20059;-77
2021/09/21 01:11:49;;;;;;;3.55;2.47;;;;;;;;;;5072803;28;20524;-76
2021/09/21 01:14:16;;;;;;;4.38;2.88;;;;;;;;;;5066921;28;20064;-77
2021/09/21 01:16:42;;;;;;;3.55;2.47;;;;;;;;;;5062661;28;20488;-76
2021/09/21 01:19:13;;;;;;;3.50;2.40;;;;;;;;;;5065099;28;20068;-76
2021/09/21 01:21:40;;;;;;;3.88;2.55;;;;;;;;;;5078202;28;20512;-76
2021/09/21 01:24:07;;;;;;;3.80;2.60;;;;;;;;;;5084723;28;20032;-76
2021/09/21 01:26:33;;;;;;;4.00;2.67;;;;;;;;;;5075571;28;20080;-77
2021/09/21 01:28:59;;;;;;;4.05;2.78;;;;;;;;;;5085135;28;20089;-77
2021/09/21 01:31:26;;;;;;;4.80;2.72;;;;;;;;;;5082205;28;20141;-77
2021/09/21 01:33:53;;;;;;;5.47;2.92;;;;;;;;;;5086571;28;20071;-77
2021/09/21 01:36:21;;;;;;;4.28;2.70;;;;;;;;;;5086111;28;20056;-77
2021/09/21 01:38:47;;;;;;;5.00;2.97;;;;;;;;;;5084632;28;20440;-76
2021/09/21 01:41:14;;;;;;;4.13;2.90;;;;;;;;;;5083861;28;20059;-77
2021/09/21 01:43:42;;;;;;;3.72;2.72;;;;;;;;;;5084686;28;20056;-76
2021/09/21 01:46:13;;;;;;;6.53;3.05;;;;;;;;;;5088366;28;20060;-77
2021/09/21 01:48:39;;;;;;;4.00;2.50;;;;;;;;;;5082919;28;20116;-77
2021/09/21 01:51:12;;;;;;;5.30;2.60;;;;;;;;;;5074899;28;20441;-78
2021/09/21 01:54:09;;;;;;;5.78;2.75;;;;;;;;;;5081357;28;20060;-77
2021/09/21 01:59:20;;;;;;;4.22;2.38;;;;;;;;;;5081747;28;20098;-77
2021/09/21 02:01:47;;;;;;;3.55;2.60;;;;;;;;;;5083369;28;20056;-77
2021/09/21 02:04:13;;;;;;;3.40;2.28;;;;;;;;;;5084996;28;20454;-77
2021/09/21 02:06:41;;;;;;;3.70;2.33;;;;;;;;;;5080500;28;20028;-77
2021/09/21 02:09:10;;;;;;;3.45;2.55;;;;;;;;;;5082869;28;20145;-77
2021/09/21 02:11:37;;;;;;;3.13;2.30;;;;;;;;;;5063363;28;20059;-77
2021/09/21 02:14:04;;;;;;;3.80;2.63;;;;;;;;;;5069441;28;20093;-78
2021/09/21 02:16:31;;;;;;;3.72;2.42;;;;;;;;;;5068088;28;20060;-78
2021/09/21 02:18:58;;;;;;;3.70;2.50;;;;;;;;;;5083482;28;20553;-77
2021/09/21 02:21:25;;;;;;;4.45;2.83;;;;;;;;;;5087245;28;20068;-77
2021/09/21 02:23:51;;;;;;;4.25;2.70;;;;;;;;;;5083477;28;20077;-78
2021/09/21 02:26:18;;;;;;;3.42;2.38;;;;;;;;;;5087922;28;20071;-77
2021/09/21 02:28:44;;;;;;;3.22;2.42;;;;;;;;;;5080774;28;20056;-78
2021/09/21 02:31:11;;;;;;;4.03;3.08;;;;;;;;;;5084262;28;20044;-78
2021/09/21 02:33:37;;;;;;;3.75;2.70;;;;;;;;;;5085813;28;20060;-77
2021/09/21 02:36:05;;;;;;;4.75;2.40;;;;;;;;;;5086524;28;20048;-77
2021/09/21 02:38:38;;;;;;;3.53;2.60;;;;;;;;;;5081857;28;20062;-77
2021/09/21 02:41:05;;;;;;;4.18;2.75;;;;;;;;;;5081415;28;20441;-77
2021/09/21 02:43:31;;;;;;;3.45;2.38;;;;;;;;;;5073154;28;20040;-77
2021/09/21 02:46:01;;;;;;;3.60;2.13;;;;;;;;;;5064287;28;20098;-77
2021/09/21 02:48:29;;;;;;;3.22;2.17;;;;;;;;;;5065080;28;20068;-77
2021/09/21 02:50:55;;;;;;;3.88;2.55;;;;;;;;;;5068766;28;20072;-77
2021/09/21 02:53:22;;;;;;;3.70;2.42;;;;;;;;;;5076649;28;20113;-77
2021/09/21 02:55:48;;;;;;;4.30;2.15;;;;;;;;;;5083574;28;20064;-77
2021/09/21 02:58:15;;;;;;;3.75;2.78;;;;;;;;;;5085441;28;20055;-76
2021/09/21 03:00:42;;;;;;;3.90;2.20;;;;;;;;;;5080574;28;20097;-76
2021/09/21 03:03:08;;;;;;;3.65;2.45;;;;;;;;;;5087049;28;20064;-77
2021/09/21 03:05:41;;;;;;;3.45;2.53;;;;;;;;;;5072424;28;20052;-75
2021/09/21 03:08:19;;;;;;;3.03;2.22;;;;;;;;;;5076405;28;20081;-77
2021/09/21 03:11:06;;;;;;;3.10;2.45;;;;;;;;;;5084065;28;20060;-76
2021/09/21 03:19:02;;;;;;;3.80;2.30;;;;;;;;;;5075725;28;20078;-75
2021/09/21 03:21:29;;;;;;;4.00;2.40;;;;;;;;;;5089254;28;20496;-76
2021/09/21 03:23:55;;;;;;;3.85;2.67;;;;;;;;;;5088125;28;20540;-75
2021/09/21 03:26:22;;;;;;;3.63;2.55;;;;;;;;;;5086774;28;20517;-75
2021/09/21 03:28:48;;;;;;;4.20;2.75;;;;;;;;;;5089404;28;20071;-77
2021/09/21 03:31:15;;;;;;;3.45;2.70;;;;;;;;;;5089057;28;20060;-77
2021/09/21 03:33:41;;;;;;;3.97;2.40;;;;;;;;;;5084212;28;20090;-76
2021/09/21 03:36:08;;;;;;;3.55;2.53;;;;;;;;;;5089312;28;20604;-77
2021/09/21 03:38:34;;;;;;;5.78;2.78;;;;;;;;;;5089004;28;20439;-78
2021/09/21 03:41:00;;;;;;;3.45;2.65;;;;;;;;;;5086353;28;20557;-76
2021/09/21 03:43:27;;;;;;;4.00;2.63;;;;;;;;;;5087690;28;20431;-78
2021/09/21 03:45:53;;;;;;;3.53;2.33;;;;;;;;;;5087159;28;20064;-78
2021/09/21 03:48:20;;;;;;;3.20;2.28;;;;;;;;;;5086187;28;20060;-77
2021/09/21 03:50:46;;;;;;;3.55;2.40;;;;;;;;;;5086381;28;20115;-78
2021/09/21 03:53:12;;;;;;;3.85;2.58;;;;;;;;;;5071692;28;20063;-78
2021/09/21 03:55:39;;;;;;;4.53;2.90;;;;;;;;;;5087287;28;20044;-78
2021/09/21 03:58:06;;;;;;;3.65;2.33;;;;;;;;;;5082707;28;20025;-78
2021/09/21 04:00:32;;;;;;;3.78;2.53;;;;;;;;;;5070112;28;20080;-79
2021/09/21 04:03:00;;;;;;;3.92;2.65;;;;;;;;;;5085302;28;20134;-78
2021/09/21 04:05:26;;;;;;;3.33;2.40;;;;;;;;;;5079987;28;20428;-78
2021/09/21 04:07:53;;;;;;;3.85;2.53;;;;;;;;;;5079310;28;20056;-78
2021/09/21 04:10:19;;;;;;;5.18;2.80;;;;;;;;;;5087062;28;20465;-77
2021/09/21 04:12:46;;;;;;;3.40;2.40;;;;;;;;;;5085209;28;20064;-78
2021/09/21 04:15:12;;;;;;;4.25;2.67;;;;;;;;;;5082726;28;20068;-78
2021/09/21 04:17:39;;;;;;;3.15;2.40;;;;;;;;;;5084602;28;20093;-77
2021/09/21 04:20:06;;;;;;;4.22;2.90;;;;;;;;;;5070051;28;20064;-78
2021/09/21 04:22:33;;;;;;;4.38;2.78;;;;;;;;;;5077348;28;20040;-77
2021/09/21 04:24:59;;;;;;;3.40;2.45;;;;;;;;;;5084529;28;20045;-77
2021/09/21 04:27:26;;;;;;;4.15;2.70;;;;;;;;;;5066452;28;20071;-77
2021/09/21 04:29:59;;;;;;;3.78;2.30;;;;;;;;;;5060022;28;20082;-78
2021/09/21 04:32:25;;;;;;;4.38;2.70;;;;;;;;;;5075109;28;20041;-78
2021/09/21 04:34:51;;;;;;;3.97;2.45;;;;;;;;;;5076721;28;20060;-77
2021/09/21 04:37:18;;;;;;;4.20;2.97;;;;;;;;;;5080819;28;20125;-77
2021/09/21 04:39:44;;;;;;;3.67;2.55;;;;;;;;;;5083738;28;20460;-78
2021/09/21 04:42:11;;;;;;;4.28;2.65;;;;;;;;;;5088280;28;23045;-78
2021/09/21 04:44:38;;;;;;;3.88;2.63;;;;;;;;;;5087442;28;20059;-77
2021/09/21 04:47:05;;;;;;;4.35;2.53;;;;;;;;;;5088908;28;20508;-79
2021/09/21 04:49:32;;;;;;;4.93;2.50;;;;;;;;;;5086898;28;20067;-79
2021/09/21 04:51:58;;;;;;;3.75;2.70;;;;;;;;;;5083232;28;20455;-79
2021/09/21 04:54:25;;;;;;;5.38;2.80;;;;;;;;;;5085914;28;20059;-78
2021/09/21 04:56:51;;;;;;;6.40;2.70;;;;;;;;;;5083556;28;20052;-78
2021/09/21 04:59:18;;;;;;;4.20;2.72;;;;;;;;;;5069566;28;20059;-78
2021/09/21 05:01:44;;;;;;;5.10;2.65;;;;;;;;;;5083440;28;20063;-76
2021/09/21 05:04:11;;;;;;;5.47;2.95;;;;;;;;;;5065625;28;20047;-76
2021/09/21 05:06:37;;;;;;;5.15;2.50;;;;;;;;;;5069678;28;20059;-76
2021/09/21 05:09:09;;;;;;;4.05;2.80;;;;;;;;;;5074977;28;20102;-78
2021/09/21 05:11:35;;;;;;;6.03;3.08;;;;;;;;;;5067096;28;20078;-77
2021/09/21 05:14:02;;;;;;;4.40;2.63;;;;;;;;;;5083792;28;20103;-78
2021/09/21 05:16:28;;;;;;;4.18;2.88;;;;;;;;;;5072729;28;20094;-78
2021/09/21 05:18:54;;;;;;;7.20;2.90;;;;;;;;;;5068876;28;20504;-78
2021/09/21 05:21:21;;;;;;;4.38;2.60;;;;;;;;;;5045662;28;1206100;-78
2021/09/21 05:23:47;;;;;;;3.67;2.50;;;;;;;;;;5086706;28;20059;-77
2021/09/21 05:26:14;;;;;;;4.35;3.00;;;;;;;;;;5087584;28;20451;-78
2021/09/21 05:28:40;;;;;;;4.95;2.70;;;;;;;;;;5087759;28;20067;-78
2021/09/21 05:31:06;;;;;;;4.65;2.72;;;;;;;;;;5087503;28;20473;-78
2021/09/21 05:33:33;;;;;;;4.55;2.60;;;;;;;;;;5086434;28;20085;-79
2021/09/21 05:35:59;;;;;;;4.35;2.63;;;;;;;;;;5087638;28;20056;-79
2021/09/21 05:38:27;;;;;;;4.38;2.90;;;;;;;;;;5085692;28;20055;-78
2021/09/21 05:40:53;;;;;;;4.47;2.78;;;;;;;;;;5085656;28;20063;-78
2021/09/21 05:43:19;;;;;;;4.07;2.58;;;;;;;;;;5086154;28;20066;-78
2021/09/21 05:45:46;;;;;;;3.67;2.60;;;;;;;;;;5084982;28;20074;-78
2021/09/21 05:48:12;;;;;;;5.32;2.78;;;;;;;;;;5084229;28;20040;-78
2021/09/21 05:50:39;;;;;;;4.10;2.20;;;;;;;;;;5086341;28;20113;-78
2021/09/21 05:53:05;;;;;;;5.00;2.42;;;;;;;;;;5082606;28;20151;-78
2021/09/21 05:55:32;;;;;;;5.30;2.85;;;;;;;;;;5072432;28;20060;-79
2021/09/21 05:57:58;;;;;;;3.63;2.40;;;;;;;;;;5069195;28;20086;-78
2021/09/21 06:00:25;;;;;;;5.82;2.65;;;;;;;;;;5048209;28;20491;-78
2021/09/21 06:02:51;;;;;;;3.70;2.50;;;;;;;;;;5063356;28;20098;-78
2021/09/21 06:05:18;;;;;;;3.05;2.08;;;;;;;;;;5062504;28;20659;-79
2021/09/21 06:07:45;;;;;;;3.88;2.60;;;;;;;;;;5082827;28;20075;-78
2021/09/21 06:10:12;;;;;;;4.10;2.63;;;;;;;;;;5080451;28;20058;-78
2021/09/21 06:12:39;;;;;;;4.30;2.30;;;;;;;;;;5083614;28;20059;-77
2021/09/21 06:15:05;;;;;;;3.33;2.30;;;;;;;;;;5085536;28;20107;-78
2021/09/21 06:17:32;;;;;;;4.05;2.35;;;;;;;;;;5087188;28;20056;-77
2021/09/21 06:19:58;;;;;;;4.57;2.30;;;;;;;;;;5080870;28;20098;-78
2021/09/21 06:22:25;;;;;;;3.65;2.47;;;;;;;;;;5075864;28;20064;-78
2021/09/21 06:24:51;;;;;;;4.45;2.55;;;;;;;;;;5074654;28;20054;-77
2021/09/21 06:27:18;;;;;;;4.07;2.30;;;;;;;;;;5084458;28;20055;-78
2021/09/21 06:29:44;;;;;;;3.30;2.50;;;;;;;;;;5084411;28;20079;-78
2021/09/21 06:32:10;;;;;;;3.90;2.45;;;;;;;;;;5073032;28;20059;-78
2021/09/21 06:34:37;;;;;;;4.13;2.17;;;;;;;;;;5070131;28;20439;-77
2021/09/21 06:37:03;;;;;;;3.95;2.38;;;;;;;;;;5090694;28;20075;-77
2021/09/21 06:39:30;;;;;;;4.30;2.40;;;;;;;;;;5079151;28;20620;-78
2021/09/21 06:41:56;;;;;;;4.05;2.42;;;;;;;;;;5070439;28;21218;-77
2021/09/21 06:44:23;;;;;;;4.13;2.30;;;;;;;;;;5060780;28;20029;-78
2021/09/21 06:46:49;;;;;;;4.07;2.45;;;;;;;;;;5063597;28;20519;-78
2021/09/21 06:49:15;;;;;;;3.85;2.50;;;;;;;;;;5085564;28;20064;-78
2021/09/21 06:51:42;;;;;;;4.57;2.50;;;;;;;;;;5063980;28;20032;-78
2021/09/21 06:54:08;;;;;;;3.70;2.40;;;;;;;;;;5062156;28;20055;-78
2021/09/21 06:56:35;;;;;;;3.65;2.30;;;;;;;;;;5084088;28;20459;-78
2021/09/21 06:59:01;;;;;;;3.35;2.33;;;;;;;;;;5080425;28;21300;-78
2021/09/21 07:01:29;;;;;;;3.58;2.03;;;;;;;;;;5085348;28;20082;-78
2021/09/21 07:03:55;;;;;;;3.80;2.50;;;;;;;;;;5084836;28;20052;-78
2021/09/21 07:06:22;;;;;;;3.45;2.40;;;;;;;;;;5088244;28;20453;-78
2021/09/21 07:08:48;;;;;;;4.18;2.70;;;;;;;;;;5081707;28;20504;-78
2021/09/21 07:11:15;;;;;;;3.10;2.13;;;;;;;;;;5085305;28;20029;-78
2021/09/21 07:13:41;;;;;;;3.05;2.30;;;;;;;;;;5069469;28;20055;-78
2021/09/21 07:16:08;;;;;;;4.20;2.10;;;;;;;;;;5069588;28;20028;-78
2021/09/21 07:18:34;;;;;;;3.05;2.03;;;;;;;;;;5082762;28;20515;-78
2021/09/21 07:21:01;;;;;;;3.13;2.17;;;;;;;;;;5080561;28;20071;-78
2021/09/21 07:23:27;;;;;;;6.10;2.55;;;;;;;;;;5063355;28;20442;-78
2021/09/21 07:25:53;;;;;;;2.88;2.20;;;;;;;;;;5062620;28;20068;-79
2021/09/21 07:28:20;;;;;;;3.15;2.20;;;;;;;;;;5072058;28;20529;-79
2021/09/21 07:30:46;;;;;;;3.88;1.92;;;;;;;;;;5068610;28;20052;-78
2021/09/21 07:33:15;;;;;;;4.90;2.50;;;;;;;;;;5080191;28;20113;-79
2021/09/21 07:35:42;;;;;;;3.10;2.10;;;;;;;;;;5068567;28;20035;-79
2021/09/21 07:38:09;;;;;;;3.75;2.08;;;;;;;;;;5072820;28;20507;-78
2021/09/21 07:40:36;;;;;;;3.58;2.20;;;;;;;;;;5067567;28;20072;-78
2021/09/21 07:43:06;;;;;;;3.05;2.10;;;;;;;;;;5082758;28;20672;-78
2021/09/21 07:45:33;;;;;;;2.97;2.00;;;;;;;;;;5080073;28;20049;-79
2021/09/21 07:48:00;;;;;;;4.50;2.47;;;;;;;;;;5078670;28;20032;-79
2021/09/21 07:50:26;;;;;;;4.32;2.40;;;;;;;;;;5074646;28;20101;-79
2021/09/21 07:52:53;;;;;;;3.30;2.13;;;;;;;;;;5074839;28;20437;-78
2021/09/21 07:55:20;;;;;;;2.88;2.08;;;;;;;;;;5074972;28;20056;-78
2021/09/21 07:57:46;;;;;;;3.33;1.95;;;;;;;;;;5078644;28;20048;-78
2021/09/21 08:00:14;;;;;;;3.00;2.10;;;;;;;;;;5084244;28;20040;-78
2021/09/21 08:02:41;;;;;;;2.45;1.85;;;;;;;;;;5084942;28;20070;-78
2021/09/21 08:05:07;;;;;;;2.80;1.75;;;;;;;;;;5083703;28;20117;-78
2021/09/21 08:07:34;;;;;;;2.78;1.92;;;;;;;;;;5075017;28;20029;-78
2021/09/21 08:10:01;;;;;;;3.80;2.35;;;;;;;;;;5072025;28;20071;-78
2021/09/21 08:12:28;;;;;;;3.05;2.05;;;;;;;;;;5055116;28;20075;-78
2021/09/21 08:14:55;;;;;;;3.15;2.15;;;;;;;;;;5085123;28;20410;-78
2021/09/21 08:17:22;;;;;;;3.17;2.17;;;;;;;;;;5068685;28;20032;-79
2021/09/21 08:19:50;;;;;;;3.33;2.50;;;;;;;;;;5073912;28;20472;-79
2021/09/21 08:22:17;;;;;;;2.60;2.00;;;;;;;;;;5068472;28;20044;-79
2021/09/21 08:24:43;;;;;;;3.03;2.15;;;;;;;;;;5066341;28;20066;-78
2021/09/21 08:27:10;;;;;;;4.55;2.15;;;;;;;;;;5083046;28;20071;-79
2021/09/21 08:29:36;;;;;;;2.75;2.00;;;;;;;;;;5074961;28;20061;-76
2021/09/21 08:32:03;;;;;;;3.13;1.80;;;;;;;;;;5058913;28;20033;-78
2021/09/21 08:34:30;;;;;;;3.03;1.80;;;;;;;;;;5064422;28;20064;-78
2021/09/21 08:36:56;;;;;;;3.83;1.92;;;;;;;;;;5075288;28;20121;-78
2021/09/21 08:39:22;;;;;;;3.78;1.90;;;;;;;;;;5082470;28;20039;-77
2021/09/21 08:41:49;;;;;;;2.65;1.90;;;;;;;;;;5067531;28;20063;-78
2021/09/21 08:44:16;;;;;;;2.92;1.70;;;;;;;;;;5059915;28;20050;-79
2021/09/21 08:46:44;;;;;;;2.63;1.73;;;;;;;;;;5069825;28;20079;-78
2021/09/21 08:49:11;;;;;;;3.55;2.03;;;;;;;;;;5088717;28;20043;-79
2021/09/21 08:51:38;;;;;;;3.42;2.00;;;;;;;;;;5082046;28;20068;-77
2021/09/21 08:54:04;;;;;;;2.70;1.90;;;;;;;;;;5058371;28;20076;-78
2021/09/21 08:56:31;;;;;;;2.70;1.80;;;;;;;;;;5083711;28;20055;-78
2021/09/21 08:59:00;;;;;;;3.03;1.80;;;;;;;;;;5090259;28;20075;-78
2021/09/21 09:01:37;;;;;;;3.78;2.13;;;;;;;;;;5078638;28;20069;-78
2021/09/21 09:04:03;;;;;;;3.00;1.90;;;;;;;;;;5087248;28;20503;-78
2021/09/21 09:06:30;;;;;;;3.45;2.00;;;;;;;;;;5076648;28;20111;-79
2021/09/21 09:09:02;;;;;;;2.50;1.80;;;;;;;;;;5068044;28;20060;-78
2021/09/21 09:11:28;;;;;;;2.65;1.73;;;;;;;;;;5069444;28;20082;-78
2021/09/21 09:13:56;;;;;;;3.13;1.88;;;;;;;;;;5073071;28;20060;-78
2021/09/21 09:16:32;;;;;;;3.13;1.80;;;;;;;;;;5034574;28;20062;-78
2021/09/21 09:19:08;;;;;;;3.17;1.70;;;;;;;;;;5083784;28;20029;-78
2021/09/21 09:21:37;;;;;;;2.70;1.70;;;;;;;;;;5085950;28;20527;-78
2021/09/21 09:24:04;;;;;;;3.03;2.05;;;;;;;;;;5074389;28;20106;-78
2021/09/21 09:26:33;;;;;;;2.70;1.80;;;;;;;;;;5067356;28;20060;-77
2021/09/21 09:29:00;;;;;;;3.65;1.80;;;;;;;;;;5071171;28;20056;-77
2021/09/21 09:31:28;;;;;;;2.60;2.03;;;;;;;;;;5062636;28;20083;-79
2021/09/21 09:34:14;;;;;;;2.95;1.60;;;;;;;;;;5067459;28;20106;-77
2021/09/21 09:36:51;;;;;;;3.70;1.95;;;;;;;;;;5066592;28;20514;-77
2021/09/21 09:39:18;;;;;;;4.32;2.10;;;;;;;;;;5072252;28;20063;-76
2021/09/21 09:41:45;;;;;;;2.83;1.80;;;;;;;;;;5076918;28;20055;-79
2021/09/21 09:44:14;;;;;;;2.90;2.05;;;;;;;;;;5084798;28;20071;-79
2021/09/21 09:46:46;;;;;;;2.42;1.70;;;;;;;;;;5065639;28;20028;-76
2021/09/21 09:49:13;;;;;;;3.28;1.83;;;;;;;;;;5058788;28;20491;-76
2021/09/21 09:51:49;;;;;;;2.55;1.70;;;;;;;;;;5079458;28;20032;-76
2021/09/21 09:54:17;;;;;;;2.55;1.67;;;;;;;;;;5084038;28;20067;-77
2021/09/21 09:56:44;;;;;;;2.78;1.70;;;;;;;;;;5084072;28;20036;-77
2021/09/21 09:59:13;;;;;;;2.83;1.90;;;;;;;;;;5084503;28;20496;-77
2021/09/21 10:01:39;;;;;;;3.17;1.48;;;;;;;;;;5083705;28;20113;-76
2021/09/21 10:04:06;;;;;;;2.22;1.52;;;;;;;;;;5077209;28;20060;-77
2021/09/21 10:06:32;;;;;;;3.22;1.63;;;;;;;;;;5067684;28;20052;-76
2021/09/21 10:08:59;;;;;;;2.38;1.50;;;;;;;;;;5072675;28;20084;-77
2021/09/21 10:11:26;;;;;;;4.18;1.75;;;;;;;;;;5087664;28;20028;-76
2021/09/21 10:13:53;;;;;;;3.15;1.80;;;;;;;;;;5076164;28;20040;-77
2021/09/21 10:16:20;;;;;;;2.75;1.70;;;;;;;;;;5062868;28;20040;-76
2021/09/21 10:18:53;;;;;;;2.50;1.70;;;;;;;;;;5081064;28;20039;-76
2021/09/21 10:21:29;;;;;;;2.78;1.58;;;;;;;;;;5079609;28;20123;-76
2021/09/21 10:23:56;;;;;;;2.83;1.50;;;;;;;;;;5053755;28;20056;-77
2021/09/21 10:26:24;;;;;;;3.05;1.65;;;;;;;;;;5069012;28;20044;-77
2021/09/21 10:28:51;;;;;;;3.17;1.80;;;;;;;;;;5082505;28;20079;-77
2021/09/21 10:31:19;;;;;;;17.85;2.20;;;;;;;;;;5085398;28;20060;-73
2021/09/21 10:33:47;;;;;;;3.45;1.60;;;;;;;;;;5084771;28;20061;-74
2021/09/21 10:36:17;;;;;;;3.22;1.40;;;;;;;;;;5076726;28;20056;-73
2021/09/21 10:38:57;;;;;;;3.10;1.77;;;;;;;;;;5084792;28;20437;-73
2021/09/21 10:41:23;;;;;;;2.05;1.30;;;;;;;;;;5083013;28;20059;-73
2021/09/21 10:44:00;;;;;;;3.03;1.70;;;;;;;;;;5068252;28;20064;-73
2021/09/21 10:46:26;;;;;;;3.17;1.90;;;;;;;;;;5072263;28;20063;-73
2021/09/21 10:48:59;;;;;;;5.18;2.15;;;;;;;;;;5083027;28;20139;-73
2021/09/21 10:51:25;;;;;;;3.08;1.80;;;;;;;;;;5082852;28;20535;-73
2021/09/21 10:54:02;;;;;;;5.15;1.70;;;;;;;;;;5083821;28;20117;-74
2021/09/21 10:56:29;;;;;;;2.35;1.50;;;;;;;;;;5085269;28;20047;-73
2021/09/21 10:58:57;;;;;;;2.83;1.83;;;;;;;;;;5081699;28;20040;-74
2021/09/21 11:01:23;;;;;;;3.00;1.80;;;;;;;;;;5084970;28;20056;-72
2021/09/21 11:03:50;;;;;;;4.38;1.90;;;;;;;;;;5056815;28;20629;-74
2021/09/21 11:06:16;;;;;;;2.22;1.50;;;;;;;;;;5081263;28;20052;-73
2021/09/21 11:08:44;;;;;;;3.72;1.77;;;;;;;;;;5072262;28;20124;-74
2021/09/21 11:11:11;;;;;;;4.07;1.75;;;;;;;;;;5086344;28;20408;-74
2021/09/21 11:13:41;;;;;;;2.90;1.75;;;;;;;;;;5086280;28;20063;-74
2021/09/21 11:16:09;;;;;;;2.78;1.60;;;;;;;;;;5082953;28;20481;-73
2021/09/21 11:18:36;;;;;;;3.55;1.80;;;;;;;;;;5068852;28;20052;-73
2021/09/21 11:21:04;;;;;;;2.60;1.77;;;;;;;;;;5083780;28;21211;-73
2021/09/21 11:23:32;;;;;;;2.78;1.60;;;;;;;;;;5073484;28;20063;-73
2021/09/21 11:26:00;;;;;;;2.42;1.73;;;;;;;;;;5081443;28;20059;-73
2021/09/21 11:28:29;;;;;;;3.20;1.70;;;;;;;;;;5079140;28;20515;-73
2021/09/21 11:30:56;;;;;;;2.63;1.58;;;;;;;;;;5085244;28;20047;-73
2021/09/21 11:33:24;;;;;;;4.97;1.98;;;;;;;;;;5077782;28;20067;-73
2021/09/21 11:35:55;;;;;;;3.72;1.52;;;;;;;;;;5080672;28;20109;-73
2021/09/21 11:38:22;;;;;;;2.50;1.60;;;;;;;;;;5082891;28;20055;-73
2021/09/21 11:40:51;;;;;;;2.60;1.55;;;;;;;;;;5090632;28;20507;-73
2021/09/21 11:43:17;;;;;;;2.65;1.55;;;;;;;;;;5084289;28;20060;-72
2021/09/21 11:45:46;;;;;;;2.75;1.70;;;;;;;;;;5076120;28;20060;-73
2021/09/21 11:48:13;;;;;;;2.53;1.60;;;;;;;;;;5081808;28;20063;-74
2021/09/21 11:50:41;;;;;;;2.65;1.73;;;;;;;;;;5087220;28;20531;-73
2021/09/21 11:53:11;;;;;;;5.50;1.70;;;;;;;;;;5080615;28;20041;-72
2021/09/21 11:55:39;;;;;;;2.97;1.80;;;;;;;;;;5070469;28;21196;-73
2021/09/21 11:58:06;;;;;;;2.25;1.40;;;;;;;;;;5065604;28;20086;-72
2021/09/21 12:00:34;;;;;;;2.50;1.58;;;;;;;;;;5084386;28;20121;-72
2021/09/21 12:03:02;;;;;;;2.88;1.83;;;;;;;;;;5084604;28;20164;-72
2021/09/21 12:05:29;;;;;;;2.97;1.63;;;;;;;;;;5087815;28;20473;-73
2021/09/21 12:07:57;;;;;;;2.47;1.60;;;;;;;;;;5079456;28;20061;-73
2021/09/21 12:10:24;;;;;;;3.35;1.83;;;;;;;;;;5074928;28;20411;-73
2021/09/21 12:13:11;;;;;;;3.05;1.70;;;;;;;;;;5067309;28;20063;-72
2021/09/21 12:15:38;;;;;;;3.40;1.67;;;;;;;;;;5086348;28;20444;-72
2021/09/21 12:18:06;;;;;;;3.10;1.63;;;;;;;;;;5084425;28;21726;-72
2021/09/21 12:20:33;;;;;;;3.22;1.90;;;;;;;;;;5077827;28;20079;-72
2021/09/21 12:23:01;;;;;;;2.50;1.63;;;;;;;;;;5064645;28;20052;-72
2021/09/21 12:25:32;;;;;;;3.15;1.48;;;;;;;;;;5071221;28;20496;-73
2021/09/21 12:27:59;;;;;;;2.97;1.88;;;;;;;;;;5067748;28;20040;-73
2021/09/21 12:30:28;;;;;;;2.65;1.83;;;;;;;;;;5076632;28;20109;-72
2021/09/21 12:33:02;;;;;;;2.97;1.60;;;;;;;;;;5086067;28;20051;-73
2021/09/21 12:35:33;;;;;;;2.88;1.80;;;;;;;;;;5081191;28;20132;-73
2021/09/21 12:38:04;;;;;;;2.33;1.50;;;;;;;;;;5072919;28;20449;-72
2021/09/21 12:40:30;;;;;;;3.25;1.90;;;;;;;;;;5063228;28;20086;-72
2021/09/21 12:42:57;;;;;;;2.70;1.50;;;;;;;;;;5090856;28;20059;-74
2021/09/21 12:45:23;;;;;;;2.97;1.75;;;;;;;;;;5067796;28;20121;-71
2021/09/21 12:47:50;;;;;;;2.33;1.60;;;;;;;;;;5083990;28;20067;-71
2021/09/21 12:50:18;;;;;;;2.58;1.30;;;;;;;;;;5081115;28;20068;-72
2021/09/21 12:52:50;;;;;;;2.85;1.70;;;;;;;;;;5076320;28;20473;-73
2021/09/21 12:55:27;;;;;;;2.20;1.40;;;;;;;;;;5073674;28;20357;-72
2021/09/21 12:57:55;;;;;;;2.17;1.40;;;;;;;;;;5070748;28;20075;-72
2021/09/21 13:00:21;;;;;;;3.25;1.70;;;;;;;;;;5073714;28;20425;-72
2021/09/21 13:02:49;;;;;;;3.17;1.70;;;;;;;;;;5084551;28;20136;-72
2021/09/21 13:05:16;;;;;;;2.33;1.40;;;;;;;;;;5085986;28;20113;-72
2021/09/21 13:07:42;;;;;;;2.15;1.48;;;;;;;;;;5081491;28;20638;-72
2021/09/21 13:10:09;;;;;;;3.90;1.70;;;;;;;;;;5079342;28;20060;-71
2021/09/21 13:12:35;;;;;;;2.85;1.60;;;;;;;;;;5087941;28;20494;-71
2021/09/21 13:15:02;;;;;;;2.53;1.73;;;;;;;;;;5085864;28;20089;-72
2021/09/21 13:17:28;;;;;;;2.50;1.60;;;;;;;;;;5070466;28;20064;-72
2021/09/21 13:19:54;;;;;;;2.10;1.38;;;;;;;;;;5066907;28;20048;-73
2021/09/21 13:22:21;;;;;;;2.05;1.42;;;;;;;;;;5067094;28;20132;-72
2021/09/21 13:24:47;;;;;;;2.33;1.48;;;;;;;;;;5063735;28;20124;-72
2021/09/21 13:27:17;;;;;;;2.70;1.48;;;;;;;;;;5067661;28;20055;-73
2021/09/21 13:29:43;;;;;;;2.60;1.63;;;;;;;;;;5082007;28;20765;-73
2021/09/21 13:32:13;;;;;;;3.17;1.50;;;;;;;;;;5086167;28;20066;-73
2021/09/21 13:34:39;;;;;;;2.85;1.60;;;;;;;;;;5085053;28;20081;-73
2021/09/21 13:37:05;;;;;;;2.83;1.63;;;;;;;;;;5078263;28;20060;-72
2021/09/21 13:39:32;;;;;;;2.95;1.63;;;;;;;;;;5086920;28;20074;-73
2021/09/21 13:41:58;;;;;;;2.78;1.50;;;;;;;;;;5086800;28;20062;-73
2021/09/21 13:44:27;;;;;;;1.88;1.35;;;;;;;;;;5070709;28;20445;-73
2021/09/21 13:46:53;;;;;;;2.08;1.23;;;;;;;;;;5073236;28;20060;-73
2021/09/21 13:49:19;;;;;;;2.58;1.40;;;;;;;;;;5062384;28;20701;-73
2021/09/21 13:51:46;;;;;;;3.38;1.60;;;;;;;;;;5064885;28;20033;-73
2021/09/21 13:54:12;;;;;;;2.80;1.50;;;;;;;;;;5066253;28;20048;-73
2021/09/21 13:56:39;;;;;;;2.50;1.50;;;;;;;;;;5065907;28;20063;-73
2021/09/21 13:59:05;;;;;;;2.55;1.60;;;;;;;;;;5066221;28;20079;-72
2021/09/21 14:01:32;;;;;;;2.47;1.63;;;;;;;;;;5065867;28;20059;-73
2021/09/21 14:03:58;;;;;;;3.08;1.60;;;;;;;;;;5066299;28;20437;-73
2021/09/21 14:06:24;;;;;;;2.65;1.60;;;;;;;;;;5066415;28;20115;-73
2021/09/21 14:08:51;;;;;;;3.75;1.70;;;;;;;;;;5066621;28;20075;-73
2021/09/21 14:11:17;;;;;;;2.63;1.50;;;;;;;;;;5064854;28;20056;-73
2021/09/21 14:13:43;;;;;;;2.95;1.52;;;;;;;;;;5079059;28;20064;-73
2021/09/21 14:16:10;;;;;;;3.05;1.52;;;;;;;;;;5080120;28;20059;-73
2021/09/21 14:18:36;;;;;;;2.38;1.40;;;;;;;;;;5086485;28;20074;-73
2021/09/21 14:21:03;;;;;;;2.50;1.50;;;;;;;;;;5075992;28;20059;-73
2021/09/21 14:23:30;;;;;;;2.35;1.60;;;;;;;;;;5084482;28;20604;-73
2021/09/21 14:25:56;;;;;;;3.00;1.58;;;;;;;;;;5073236;28;20499;-73
2021/09/21 14:28:23;;;;;;;2.40;1.38;;;;;;;;;;5065684;28;20060;-73
2021/09/21 14:30:50;;;;;;;2.58;1.48;;;;;;;;;;5064128;28;20080;-73
2021/09/21 14:33:16;;;;;;;2.63;1.60;;;;;;;;;;5063857;28;20059;-73
2021/09/21 14:35:44;;;;;;;1.83;1.35;;;;;;;;;;5063680;28;20465;-73
2021/09/21 14:38:10;;;;;;;2.80;1.77;;;;;;;;;;5070045;28;20527;-74
2021/09/21 14:40:38;;;;;;;2.05;1.30;;;;;;;;;;5073609;28;20063;-72
2021/09/21 14:43:04;;;;;;;2.58;1.33;;;;;;;;;;5082377;28;20059;-73
2021/09/21 14:45:33;;;;;;;2.28;1.40;;;;;;;;;;5080453;28;20499;-73
2021/09/21 14:47:59;;;;;;;3.47;1.63;;;;;;;;;;5075577;28;20060;-73
2021/09/21 14:50:26;;;;;;;3.15;1.65;;;;;;;;;;5076399;28;20377;-73
2021/09/21 14:52:52;;;;;;;2.55;1.60;;;;;;;;;;5075685;28;20063;-73